Time;durP1;ratioP1;P1;durP2;ratioP2;P2;SDS_P1;SDS_P2;PMS_P1;PMS_P2;Temp;Humidity;BMP_temperature;BMP_pressure;BME280_temperature;BME280_humidity;BME280_pressure;Samples;Min_cycle;Max_cycle;Signal;HPM_P1;HPM_P2
2021/09/30 00:02:16;;;;;;;;;2.25;0.00;;;;;12.46;69.96;102512.44;5083085;27;45242;-59
2021/09/30 00:04:41;;;;;;;;;1.00;1.00;;;;;12.45;70.11;102499.41;5083362;27;45425;-59
2021/09/30 00:07:07;;;;;;;;;1.75;1.00;;;;;12.43;70.37;102502.03;5083518;27;45387;-59
2021/09/30 00:09:37;;;;;;;;;1.00;1.00;;;;;12.43;70.26;102501.16;5083014;27;46042;-59
2021/09/30 00:12:18;;;;;;;;;4.00;1.00;;;;;12.43;70.17;102515.06;5083289;27;45456;-59
2021/09/30 00:14:51;;;;;;;;;2.75;1.00;;;;;12.43;70.33;102515.06;5082179;28;45479;-59
2021/09/30 00:34:00;;;;;;;;;4.00;2.00;;;;;12.37;70.29;102501.19;5078870;28;46017;-59
2021/09/30 00:46:56;;;;;;;;;1.50;1.00;;;;;12.27;70.88;102503.00;5080207;28;45547;-59
2021/09/30 00:52:17;;;;;;;;;3.00;1.50;;;;;12.22;71.46;102496.09;5080234;27;45421;-60
2021/09/30 02:20:26;;;;;;;;;0.00;0.00;;;;;11.81;73.16;102472.00;5081223;28;45669;-59
2021/09/30 02:28:14;;;;;;;;;1.00;1.00;;;;;11.78;73.69;102463.28;5081221;28;45259;-59
2021/09/30 02:58:33;;;;;;;;;1.75;1.50;;;;;11.73;73.79;102441.59;5080648;28;45223;-59
2021/09/30 03:01:16;;;;;;;;;1.00;1.00;;;;;11.76;73.15;102437.25;5080017;27;45282;-59
2021/09/30 03:03:43;;;;;;;;;1.00;1.00;;;;;11.78;73.47;102434.63;5080407;27;47094;-59
2021/09/30 03:06:08;;;;;;;;;2.50;1.25;;;;;11.79;73.32;102441.59;5080320;27;45350;-59
2021/09/30 03:08:42;;;;;;;;;3.25;1.00;;;;;11.79;73.70;102439.00;5080811;28;45408;-59
2021/09/30 03:11:08;;;;;;;;;2.00;1.00;;;;;11.79;73.57;102442.47;5080287;27;45424;-59
2021/09/30 03:13:35;;;;;;;;;2.00;1.25;;;;;11.78;73.54;102440.72;5080368;27;46424;-59
2021/09/30 03:16:07;;;;;;;;;2.75;0.25;;;;;11.76;73.71;102442.44;5079623;27;45333;-59
2021/09/30 03:23:34;;;;;;;;;2.50;2.00;;;;;11.73;73.54;102454.63;5079536;27;45464;-59
2021/09/30 03:26:00;;;;;;;;;0.50;0.25;;;;;11.73;73.41;102459.84;5079488;27;45299;-59
2021/09/30 03:28:27;;;;;;;;;2.25;1.00;;;;;11.72;73.39;102452.91;5080034;27;45420;-59
2021/09/30 03:30:56;;;;;;;;;1.00;1.00;;;;;11.70;73.61;102458.13;5079477;27;45339;-59
2021/09/30 03:33:23;;;;;;;;;4.00;1.00;;;;;11.68;73.69;102448.56;5079862;27;46943;-59
2021/09/30 03:35:49;;;;;;;;;0.50;0.50;;;;;11.68;73.28;102453.78;5077347;27;45712;-59
2021/09/30 03:38:15;;;;;;;;;1.50;1.50;;;;;11.67;73.52;102452.94;5080307;28;45303;-60
2021/09/30 03:40:42;;;;;;;;;1.00;1.00;;;;;11.66;73.57;102451.19;5079754;27;45310;-60
2021/09/30 03:43:08;;;;;;;;;1.00;1.00;;;;;11.67;73.79;102457.28;5078489;28;47453;-59
2021/09/30 03:45:34;;;;;;;;;2.00;2.00;;;;;11.65;73.23;102452.06;5077415;28;45200;-59
2021/09/30 03:48:00;;;;;;;;;1.00;1.00;;;;;11.65;73.74;102449.47;5080039;27;45223;-60
2021/09/30 03:50:29;;;;;;;;;4.00;1.75;;;;;11.64;73.60;102458.16;5079662;28;46662;-58
2021/09/30 03:53:00;;;;;;;;;12.50;9.00;;;;;11.61;73.65;102463.34;5079389;27;46271;-59
2021/09/30 03:55:42;;;;;;;;;4.00;2.00;;;;;11.60;74.11;102466.81;5079363;27;45583;-58
2021/09/30 04:00:51;;;;;;;;;2.00;1.00;;;;;11.49;74.73;102463.41;5079260;28;45392;-58
2021/09/30 04:03:16;;;;;;;;;3.00;2.00;;;;;11.47;74.88;102466.03;5079378;27;45331;-59
2021/09/30 04:05:42;;;;;;;;;1.00;1.00;;;;;11.44;75.53;102471.25;5079744;27;45350;-59
2021/09/30 04:08:07;;;;;;;;;3.00;1.75;;;;;11.43;75.33;102472.13;5079492;28;45470;-59
2021/09/30 04:10:33;;;;;;;;;4.50;1.00;;;;;11.42;74.96;102477.34;5079519;27;45395;-59
2021/09/30 04:12:58;;;;;;;;;4.75;1.00;;;;;11.43;75.08;102479.06;5079181;27;45930;-59
2021/09/30 04:15:23;;;;;;;;;4.00;2.00;;;;;11.40;75.28;102479.03;5078867;27;45183;-59
2021/09/30 04:17:49;;;;;;;;;3.50;2.00;;;;;11.42;75.77;102474.72;5078171;28;45399;-59
2021/09/30 04:20:17;;;;;;;;;2.50;1.00;;;;;11.41;75.47;102479.06;5079416;27;45461;-60
2021/09/30 04:22:45;;;;;;;;;2.50;2.50;;;;;11.41;75.48;102481.69;5079089;28;45438;-60
2021/09/30 04:25:11;;;;;;;;;3.00;2.00;;;;;11.42;75.79;102475.59;5079260;27;45329;-60
2021/09/30 04:27:37;;;;;;;;;1.00;1.00;;;;;11.43;75.67;102469.50;5079197;27;45361;-59
2021/09/30 04:30:05;;;;;;;;;2.00;2.00;;;;;11.45;75.59;102477.31;5078850;27;45256;-60
2021/09/30 04:32:30;;;;;;;;;2.50;1.00;;;;;11.44;75.69;102479.06;5078569;27;47037;-60
2021/09/30 04:34:56;;;;;;;;;3.75;2.00;;;;;11.45;75.85;102482.53;5077461;28;45279;-59
2021/09/30 04:37:22;;;;;;;;;2.00;2.00;;;;;11.42;76.39;102480.81;5081128;27;45485;-60
2021/09/30 04:39:47;;;;;;;;;3.50;3.00;;;;;11.39;75.89;102472.09;5082529;27;45231;-60
2021/09/30 04:42:13;;;;;;;;;1.00;1.00;;;;;11.42;75.79;102466.91;5080844;27;45944;-60
2021/09/30 04:44:38;;;;;;;;;3.00;2.75;;;;;11.41;76.18;102466.06;5081386;27;45334;-60
2021/09/30 04:47:03;;;;;;;;;3.25;3.00;;;;;11.43;76.07;102463.44;5081835;27;45322;-60
2021/09/30 04:49:29;;;;;;;;;8.50;5.50;;;;;11.44;76.41;102462.56;5082448;27;45346;-59
2021/09/30 04:51:54;;;;;;;;;3.00;2.00;;;;;11.44;76.14;102465.16;5081925;27;46255;-59
2021/09/30 04:54:19;;;;;;;;;1.25;1.25;;;;;11.44;76.13;102463.44;5082086;27;45279;-59
2021/09/30 04:56:45;;;;;;;;;4.00;2.00;;;;;11.41;76.26;102460.84;5082176;27;45529;-60
2021/09/30 04:59:10;;;;;;;;;1.00;1.00;;;;;11.41;75.97;102463.44;5081849;28;45234;-60
2021/09/30 05:01:36;;;;;;;;;2.00;2.00;;;;;11.41;76.55;102462.56;5081472;27;45409;-60
2021/09/30 05:04:01;;;;;;;;;3.00;2.50;;;;;11.40;76.30;102464.28;5081814;27;45347;-59
2021/09/30 05:06:26;;;;;;;;;3.75;3.75;;;;;11.40;76.68;102468.63;5081856;27;45330;-60
2021/09/30 05:08:56;;;;;;;;;4.00;4.00;;;;;11.40;76.60;102458.22;5082044;27;45318;-58
2021/09/30 05:11:23;;;;;;;;;3.75;3.75;;;;;11.39;76.57;102467.75;5081555;27;46356;-59
2021/09/30 05:13:52;;;;;;;;;4.75;4.50;;;;;11.39;76.87;102466.91;5081965;27;45521;-59
2021/09/30 05:16:18;;;;;;;;;10.00;3.25;;;;;11.37;76.77;102469.50;5080398;28;45349;-62
2021/09/30 05:18:51;;;;;;;;;8.50;4.00;;;;;11.39;77.11;102474.72;5080796;27;45160;-62
2021/09/30 05:21:17;;;;;;;;;4.50;4.50;;;;;11.37;76.97;102473.84;5080574;28;47506;-65
2021/09/30 05:23:42;;;;;;;;;8.00;6.00;;;;;11.37;77.40;102477.31;5081873;27;45665;-62
2021/09/30 05:26:08;;;;;;;;;8.75;5.75;;;;;11.37;77.56;102471.25;5081932;27;45264;-61
2021/09/30 05:28:34;;;;;;;;;8.00;6.00;;;;;11.36;77.57;102470.38;5081627;27;45243;-62
2021/09/30 05:31:00;;;;;;;;;6.00;5.25;;;;;11.37;77.44;102468.66;5080972;27;47000;-62
2021/09/30 05:33:26;;;;;;;;;10.00;5.00;;;;;11.36;77.30;102472.13;5081282;27;45519;-63
2021/09/30 05:35:52;;;;;;;;;10.00;7.00;;;;;11.36;77.58;102473.00;5078723;28;45237;-60
2021/09/30 05:38:17;;;;;;;;;4.50;3.00;;;;;11.33;77.33;102475.59;5080780;27;45476;-59
2021/09/30 05:40:47;;;;;;;;;7.50;5.75;;;;;11.34;77.30;102471.25;5079694;28;45951;-60
2021/09/30 05:43:19;;;;;;;;;3.75;3.25;;;;;11.35;77.65;102475.59;5079528;28;45826;-60
2021/09/30 05:45:44;;;;;;;;;9.50;7.75;;;;;11.34;77.70;102474.72;5079945;27;45444;-63
2021/09/30 05:48:10;;;;;;;;;6.50;3.50;;;;;11.37;77.79;102479.06;5080120;27;45545;-61
2021/09/30 05:50:36;;;;;;;;;4.00;4.00;;;;;11.36;77.74;102469.53;5080977;27;47395;-62
2021/09/30 05:53:02;;;;;;;;;7.75;4.75;;;;;11.36;77.69;102477.31;5080423;27;45403;-61
2021/09/30 05:55:28;;;;;;;;;5.50;4.00;;;;;11.40;77.37;102484.25;5080363;28;45515;-62
2021/09/30 05:57:53;;;;;;;;;3.25;3.25;;;;;11.42;77.53;102482.53;5080277;27;45295;-60
2021/09/30 06:13:53;;;;;;;;;7.75;4.75;;;;;11.58;77.47;102474.66;5078129;28;45463;-62
2021/09/30 06:16:24;;;;;;;;;6.75;3.75;;;;;11.63;77.57;102482.47;5079161;28;45307;-62
2021/09/30 06:18:50;;;;;;;;;6.25;3.00;;;;;11.67;77.08;102484.19;5077653;28;45415;-63
2021/09/30 06:21:15;;;;;;;;;12.00;9.50;;;;;11.73;77.17;102473.72;5078314;27;46259;-64
2021/09/30 06:23:41;;;;;;;;;16.00;9.25;;;;;11.79;77.32;102483.28;5080526;28;45341;-63
2021/09/30 06:26:07;;;;;;;;;16.00;10.25;;;;;11.85;76.94;102478.06;5080460;27;45392;-61
2021/09/30 06:28:33;;;;;;;;;12.50;9.75;;;;;11.93;76.96;102480.59;5080314;27;45431;-61
2021/09/30 06:30:58;;;;;;;;;11.00;7.25;;;;;11.99;76.72;102477.97;5079232;27;45342;-61
2021/09/30 06:33:24;;;;;;;;;9.25;5.00;;;;;12.03;76.14;102479.69;5080147;27;45393;-60
2021/09/30 06:35:51;;;;;;;;;9.00;5.00;;;;;12.04;75.96;102474.47;5077905;28;45234;-61
2021/09/30 06:38:16;;;;;;;;;5.25;4.00;;;;;12.08;76.12;102475.31;5080588;27;45425;-61
2021/09/30 06:40:42;;;;;;;;;7.75;7.25;;;;;12.09;75.29;102471.84;5079873;27;45227;-60
2021/09/30 06:43:07;;;;;;;;;7.50;7.25;;;;;12.10;75.21;102468.34;5078980;28;45220;-60
2021/09/30 06:45:33;;;;;;;;;11.50;9.75;;;;;12.12;75.44;102471.81;5076259;27;45511;-61
2021/09/30 06:47:58;;;;;;;;;9.25;7.00;;;;;12.16;75.43;102466.56;5077533;27;45401;-63
2021/09/30 06:50:24;;;;;;;;;12.25;4.25;;;;;12.22;75.88;102470.91;5067617;27;45387;-64
2021/09/30 06:52:49;;;;;;;;;12.50;8.50;;;;;12.25;75.13;102460.44;5080083;27;45443;-64
2021/09/30 06:55:14;;;;;;;;;12.50;8.75;;;;;12.31;74.75;102460.38;5079268;27;45306;-62
2021/09/30 06:57:40;;;;;;;;;10.75;7.75;;;;;12.39;74.85;102458.59;5079755;27;45300;-63
2021/09/30 07:00:08;;;;;;;;;7.25;4.00;;;;;12.51;74.34;102460.25;5078628;27;46289;-61
2021/09/30 07:02:36;;;;;;;;;7.75;4.00;;;;;12.61;73.93;102461.00;5079978;27;45768;-60
2021/09/30 07:05:02;;;;;;;;;6.25;5.00;;;;;12.72;73.64;102461.81;5080199;27;45279;-62
2021/09/30 07:07:28;;;;;;;;;5.50;5.00;;;;;12.80;73.22;102453.00;5079313;28;45457;-62
2021/09/30 07:09:53;;;;;;;;;8.00;5.25;;;;;12.91;72.63;102452.94;5076667;27;45421;-62
2021/09/30 07:12:19;;;;;;;;;10.00;4.75;;;;;12.98;72.22;102451.97;5078811;28;45365;-62
2021/09/30 07:14:44;;;;;;;;;6.50;6.50;;;;;13.04;72.14;102446.72;5077192;27;45428;-62
2021/09/30 07:17:11;;;;;;;;;4.50;4.00;;;;;13.04;71.57;102457.16;5077215;28;46132;-62
2021/09/30 07:19:37;;;;;;;;;6.00;5.00;;;;;13.14;71.44;102457.03;5076484;27;46250;-62
2021/09/30 07:22:05;;;;;;;;;9.00;6.00;;;;;13.24;71.06;102459.59;5079095;27;45324;-62
2021/09/30 07:24:31;;;;;;;;;10.75;4.50;;;;;13.34;70.64;102473.38;5076482;27;45357;-62
2021/09/30 07:26:56;;;;;;;;;5.00;4.50;;;;;13.43;70.56;102464.59;5076480;27;45483;-63
2021/09/30 07:29:22;;;;;;;;;7.50;5.25;;;;;13.56;70.36;102474.88;5073499;28;46139;-63
2021/09/30 07:31:47;;;;;;;;;6.00;5.25;;;;;13.68;69.76;102471.25;5078467;28;45491;-63
2021/09/30 07:34:13;;;;;;;;;8.00;6.00;;;;;13.79;69.17;102468.47;5078225;27;45378;-63
2021/09/30 07:36:43;;;;;;;;;12.25;6.75;;;;;13.90;68.96;102467.47;5074799;28;45747;-64
2021/09/30 07:39:10;;;;;;;;;10.50;8.25;;;;;14.03;68.87;102467.31;5078026;28;46390;-58
2021/09/30 07:41:36;;;;;;;;;7.25;5.00;;;;;14.13;68.37;102467.13;5067371;27;45237;-59
2021/09/30 07:44:03;;;;;;;;;6.50;6.00;;;;;14.24;67.63;102472.22;5077560;28;45273;-58
2021/09/30 07:46:33;;;;;;;;;9.75;6.75;;;;;14.35;67.70;102466.81;5075481;28;45516;-60
2021/09/30 07:48:58;;;;;;;;;6.00;4.75;;;;;14.41;66.70;102462.34;5075335;28;46185;-59
2021/09/30 07:51:24;;;;;;;;;10.25;7.75;;;;;14.47;66.60;102461.44;5075768;27;45287;-63
2021/09/30 07:53:50;;;;;;;;;4.00;4.00;;;;;14.58;66.18;102465.59;5076044;28;45449;-59
2021/09/30 07:56:15;;;;;;;;;8.50;5.00;;;;;14.70;66.27;102456.69;5078738;27;45215;-59
2021/09/30 07:58:40;;;;;;;;;6.25;6.25;;;;;14.88;66.29;102458.97;5076992;27;45344;-59
2021/09/30 08:01:07;;;;;;;;;9.25;8.00;;;;;15.04;65.32;102461.31;5076080;27;45252;-59
2021/09/30 08:03:32;;;;;;;;;13.25;8.00;;;;;15.17;64.93;102463.66;5078839;27;45190;-58
2021/09/30 08:05:58;;;;;;;;;15.50;8.00;;;;;15.32;64.34;102470.38;5078344;27;45182;-58
2021/09/30 08:08:23;;;;;;;;;14.50;7.75;;;;;15.47;64.20;102471.81;5077277;27;46249;-58
2021/09/30 08:10:49;;;;;;;;;10.00;8.00;;;;;15.49;63.59;102468.28;5077644;27;45350;-59
2021/09/30 08:13:14;;;;;;;;;11.25;7.00;;;;;15.42;62.03;102476.31;5076113;28;45445;-59
2021/09/30 08:15:39;;;;;;;;;6.50;6.00;;;;;15.31;62.79;102475.63;5080185;27;45389;-59
2021/09/30 08:18:05;;;;;;;;;6.50;6.50;;;;;15.28;62.55;102481.81;5082074;27;45973;-58
2021/09/30 08:20:31;;;;;;;;;7.25;6.25;;;;;15.29;62.51;102483.53;5082395;27;45310;-58
2021/09/30 08:22:57;;;;;;;;;13.50;8.75;;;;;15.31;62.59;102486.97;5082718;27;45389;-58
2021/09/30 08:25:23;;;;;;;;;10.50;7.25;;;;;15.31;62.19;102484.34;5082372;28;45249;-58
2021/09/30 08:27:48;;;;;;;;;7.00;5.25;;;;;15.36;62.19;102485.13;5082422;28;46303;-58
2021/09/30 08:30:14;;;;;;;;;8.00;5.00;;;;;15.38;61.44;102491.19;5081808;27;45243;-58
2021/09/30 08:32:40;;;;;;;;;5.25;4.75;;;;;15.39;60.18;102485.06;5081060;28;45500;-58
2021/09/30 08:35:06;;;;;;;;;7.50;5.00;;;;;15.41;60.63;102490.25;5080257;27;45349;-58
2021/09/30 08:37:32;;;;;;;;;8.75;4.50;;;;;15.48;59.90;102486.66;5080506;28;45300;-58
2021/09/30 08:39:58;;;;;;;;;10.00;5.00;;;;;15.48;60.38;102479.66;5082328;27;45728;-61
2021/09/30 08:42:24;;;;;;;;;7.75;5.00;;;;;15.53;60.44;102475.19;5068904;28;45381;-62
2021/09/30 08:44:51;;;;;;;;;4.00;4.00;;;;;15.66;59.83;102477.59;5081099;27;45315;-63
2021/09/30 08:47:19;;;;;;;;;8.25;2.75;;;;;15.67;56.78;102466.22;5081156;27;47113;-61
2021/09/30 08:49:45;;;;;;;;;8.25;5.00;;;;;15.57;57.52;102464.63;5080435;28;45731;-60
2021/09/30 08:52:10;;;;;;;;;4.75;2.00;;;;;15.45;57.18;102465.75;5082276;27;45222;-60
2021/09/30 08:54:35;;;;;;;;;5.25;4.75;;;;;15.41;57.62;102466.69;5082078;27;45222;-60
2021/09/30 08:57:03;;;;;;;;;8.00;6.00;;;;;15.42;58.08;102461.44;5082199;27;45384;-61
2021/09/30 08:59:29;;;;;;;;;4.75;4.50;;;;;15.50;58.67;102456.91;5081997;27;45856;-66
2021/09/30 09:02:10;;;;;;;;;8.00;2.50;;;;;15.72;58.80;102449.47;5082204;27;45344;-61
2021/09/30 09:04:52;;;;;;;;;5.75;4.00;;;;;15.74;55.82;102447.69;5082083;28;45314;-65
2021/09/30 09:07:25;;;;;;;;;5.00;3.25;;;;;15.72;56.08;102440.75;5082078;27;46267;-62
2021/09/30 09:09:50;;;;;;;;;4.00;3.00;;;;;15.81;56.42;102440.53;5081387;28;45630;-60
2021/09/30 09:12:16;;;;;;;;;9.25;3.00;;;;;15.93;56.22;102435.03;5080526;28;45299;-60
2021/09/30 09:14:42;;;;;;;;;4.25;1.00;;;;;15.97;54.55;102438.44;5081880;27;45449;-60
2021/09/30 09:17:11;;;;;;;;;4.00;1.75;;;;;15.94;54.78;102431.50;5081659;28;46579;-60
2021/09/30 09:19:41;;;;;;;;;4.75;1.75;;;;;16.03;55.64;102431.31;5081876;27;45464;-60
2021/09/30 09:22:13;;;;;;;;;2.25;1.50;;;;;16.15;54.92;102438.03;5081614;27;45572;-60
2021/09/30 09:25:00;;;;;;;;;6.00;3.25;;;;;16.22;54.99;102439.63;5076320;27;45464;-61
2021/09/30 09:27:44;;;;;;;;;4.00;3.25;;;;;16.27;53.87;102439.50;5078286;28;47332;-62
2021/09/30 09:30:28;;;;;;;;;6.75;2.75;;;;;16.15;51.79;102437.16;5075771;28;45853;-62
2021/09/30 09:33:02;;;;;;;;;7.25;5.00;;;;;16.06;52.39;102433.88;5081331;28;45390;-62
2021/09/30 09:35:28;;;;;;;;;7.25;2.25;;;;;16.00;51.46;102430.50;5078708;28;45244;-62
2021/09/30 09:38:01;;;;;;;;;6.25;5.00;;;;;15.97;50.50;102427.94;5081589;27;45964;-62
2021/09/30 09:40:27;;;;;;;;;7.00;3.75;;;;;16.04;51.05;102438.28;5079196;27;45189;-62
2021/09/30 09:42:52;;;;;;;;;3.00;1.00;;;;;16.07;49.87;102437.34;5071294;28;45461;-62
2021/09/30 09:45:17;;;;;;;;;4.50;0.75;;;;;16.01;49.65;102443.56;5080279;27;45514;-62
2021/09/30 09:47:44;;;;;;;;;0.50;0.00;;;;;16.07;50.97;102426.84;5079979;28;45860;-62
2021/09/30 09:50:24;;;;;;;;;0.50;0.50;;;;;16.23;50.23;102425.59;5081031;27;45324;-62
2021/09/30 09:53:01;;;;;;;;;2.75;0.50;;;;;16.28;50.37;102428.97;5081250;27;45219;-62
2021/09/30 09:55:41;;;;;;;;;1.00;0.00;;;;;16.43;50.32;102440.84;5080539;28;45455;-61
2021/09/30 09:58:13;;;;;;;;;2.50;0.50;;;;;16.62;48.38;102442.13;5080697;27;46264;-61
2021/09/30 10:00:50;;;;;;;;;10.50;5.00;;;;;17.33;48.19;102434.06;5080226;27;45685;-63
2021/09/30 10:03:22;;;;;;;;;8.00;4.00;;;;;18.26;48.16;102433.03;5080378;27;45432;-64
2021/09/30 10:05:49;;;;;;;;;4.75;3.00;;;;;18.48;45.17;102427.91;5080562;27;45162;-52
2021/09/30 10:08:15;;;;;;;;;6.50;4.50;;;;;18.51;45.51;102423.41;5079980;27;45350;-53
2021/09/30 10:10:43;;;;;;;;;2.00;2.00;;;;;18.75;45.22;102420.88;5095129;27;45380;-64
2021/09/30 10:13:09;;;;;;;;;9.75;4.25;;;;;18.82;43.71;102431.16;5079494;28;45394;-52
2021/09/30 10:15:36;;;;;;;;;13.50;5.25;;;;;18.79;44.02;102430.38;5079934;27;45220;-63
2021/09/30 10:18:02;;;;;;;;;0.25;0.00;;;;;18.77;44.42;102432.22;5079270;27;46065;-69
2021/09/30 10:20:29;;;;;;;;;5.25;3.00;;;;;19.48;41.86;102425.25;5080523;27;45496;-69
2021/09/30 10:22:54;;;;;;;;;1.75;0.75;;;;;19.79;43.46;102420.53;5079503;27;45422;-69
2021/09/30 10:25:21;;;;;;;;;3.00;1.00;;;;;19.86;43.45;102416.75;5079958;27;45389;-65
2021/09/30 10:27:56;;;;;;;;;5.25;2.50;;;;;19.68;40.56;102420.13;5077256;28;45460;-68
2021/09/30 10:30:32;;;;;;;;;4.25;2.25;;;;;20.17;41.11;102428.69;5078753;27;45630;-64
2021/09/30 10:32:59;;;;;;;;;3.00;1.25;;;;;19.94;38.51;102411.16;5074235;28;45460;-69
2021/09/30 10:35:52;;;;;;;;;1.25;0.50;;;;;19.46;41.14;102409.50;5075721;28;45339;-68
2021/09/30 10:38:17;;;;;;;;;3.50;0.75;;;;;19.33;41.80;102410.88;5080677;27;46563;-68
2021/09/30 10:41:01;;;;;;;;;0.33;0.33;;;;;19.21;41.81;102403.41;5074802;28;45439;-66
2021/09/30 10:43:32;;;;;;;;;1.50;0.50;;;;;18.97;42.43;102405.16;5073810;28;45377;-68
2021/09/30 10:45:58;;;;;;;;;3.75;2.75;;;;;18.88;42.78;102409.00;5078461;27;45201;-66
2021/09/30 10:48:24;;;;;;;;;3.00;3.00;;;;;18.81;43.15;102407.47;5095635;27;45645;-65
2021/09/30 10:51:00;;;;;;;;;3.75;0.50;;;;;18.78;43.46;102405.81;5079669;28;45463;-65
2021/09/30 10:53:44;;;;;;;;;3.50;1.00;;;;;18.78;43.22;102402.31;5073550;28;45369;-68
2021/09/30 10:56:29;;;;;;;;;4.50;2.00;;;;;18.75;43.82;102394.53;5091525;27;45380;-66
2021/09/30 10:59:07;;;;;;;;;2.00;1.00;;;;;18.75;43.46;102384.00;5084996;27;47252;-66
2021/09/30 11:01:33;;;;;;;;;1.00;1.00;;;;;18.74;43.62;102379.66;5079463;27;45540;-67
2021/09/30 11:04:01;;;;;;;;;2.50;1.00;;;;;18.75;43.26;102373.47;5080175;27;45465;-65
2021/09/30 11:06:27;;;;;;;;;1.75;1.00;;;;;18.72;43.57;102376.22;5073522;27;45564;-66
2021/09/30 11:09:08;;;;;;;;;2.50;1.00;;;;;18.71;43.39;102364.81;5078483;27;45483;-63
2021/09/30 11:11:33;;;;;;;;;1.00;1.00;;;;;18.71;43.70;102353.41;5079437;27;45290;-63
2021/09/30 11:13:59;;;;;;;;;0.75;0.75;;;;;18.68;43.18;102375.47;5079516;27;45698;-64
2021/09/30 11:16:41;;;;;;;;;0.75;0.00;;;;;18.60;43.27;102359.03;5079547;27;45164;-63
2021/09/30 11:19:29;;;;;;;;;0.00;0.00;;;;;18.50;43.31;102355.88;5069786;28;47260;-64
2021/09/30 11:21:57;;;;;;;;;0.75;0.00;;;;;18.42;43.83;102347.38;5072830;28;45440;-76
2021/09/30 11:24:26;;;;;;;;;1.25;0.00;;;;;18.37;43.55;102345.81;5075565;28;45559;-74
2021/09/30 11:26:52;;;;;;;;;1.25;1.00;;;;;18.28;42.91;102344.34;5079183;27;45528;-73
2021/09/30 11:29:24;;;;;;;;;1.33;1.33;;;;;18.19;43.07;102345.50;5077375;28;45601;-62
2021/09/30 11:31:56;;;;;;;;;1.00;1.00;;;;;18.19;43.50;102337.63;5078307;27;45736;-63
2021/09/30 11:34:25;;;;;;;;;2.00;0.25;;;;;18.23;43.24;102341.03;5066795;28;45362;-61
2021/09/30 11:36:51;;;;;;;;;0.00;0.00;;;;;18.18;43.47;102343.78;5077521;28;45436;-62
2021/09/30 11:39:17;;;;;;;;;1.50;0.00;;;;;18.22;42.98;102348.06;5079347;28;46195;-62
2021/09/30 11:41:45;;;;;;;;;2.00;1.00;;;;;18.18;43.29;102345.56;5077755;28;45660;-65
2021/09/30 11:44:15;;;;;;;;;0.75;0.75;;;;;18.16;42.95;102337.72;5076298;27;45204;-76
2021/09/30 11:46:42;;;;;;;;;6.75;2.00;;;;;18.24;43.64;102332.22;5076365;27;45547;-74
2021/09/30 11:49:13;;;;;;;;;0.50;0.50;;;;;18.22;42.27;102331.41;5082315;27;46195;-72
2021/09/30 11:51:50;;;;;;;;;4.75;1.25;;;;;18.06;42.07;102332.84;5079719;27;45765;-68
2021/09/30 11:54:18;;;;;;;;;2.75;2.00;;;;;18.04;42.26;102327.63;5079693;28;45296;-67
2021/09/30 11:56:49;;;;;;;;;1.00;0.00;;;;;18.05;42.21;102325.84;5077329;27;45379;-69
2021/09/30 11:59:17;;;;;;;;;1.00;0.00;;;;;18.12;42.55;102324.72;5082582;27;46501;-69
2021/09/30 12:02:02;;;;;;;;;0.00;0.00;;;;;18.11;42.43;102315.97;5081965;27;46765;-69
2021/09/30 12:04:33;;;;;;;;;2.25;2.25;;;;;18.12;43.05;102307.16;5079368;28;45500;-69
2021/09/30 12:06:58;;;;;;;;;2.00;1.00;;;;;18.14;42.79;102318.50;5081655;28;45300;-69
2021/09/30 12:09:24;;;;;;;;;0.50;0.00;;;;;18.13;42.00;102302.75;5081520;28;45406;-70
2021/09/30 12:11:55;;;;;;;;;2.00;2.00;;;;;18.15;41.65;102300.94;5082989;27;45318;-69
2021/09/30 12:14:22;;;;;;;;;15.50;7.50;;;;;18.29;42.70;102289.94;5082086;27;45465;-70
2021/09/30 12:17:00;;;;;;;;;1.75;1.00;;;;;18.46;42.51;102288.44;5078365;28;46266;-70
2021/09/30 12:19:31;;;;;;;;;8.75;3.75;;;;;18.57;42.28;102282.78;5078426;28;46371;-68
2021/09/30 12:21:58;;;;;;;;;2.50;2.50;;;;;18.62;42.79;102266.81;5078514;27;45262;-69
2021/09/30 12:24:24;;;;;;;;;3.75;3.00;;;;;18.69;41.26;102266.56;5082773;28;45223;-69
2021/09/30 12:26:50;;;;;;;;;1.00;1.00;;;;;18.62;40.53;102262.44;5082239;27;45330;-68
2021/09/30 12:29:19;;;;;;;;;1.50;1.00;;;;;18.50;39.97;102254.97;5080877;28;46138;-69
2021/09/30 12:31:46;;;;;;;;;1.50;1.00;;;;;18.44;40.40;102256.06;5082203;27;45664;-69
2021/09/30 12:34:22;;;;;;;;;2.00;1.00;;;;;18.31;40.56;102254.75;5067325;27;45253;-70
2021/09/30 12:36:47;;;;;;;;;1.00;1.00;;;;;18.32;40.45;102256.47;5081134;27;45420;-68
2021/09/30 12:39:12;;;;;;;;;0.00;0.00;;;;;18.33;40.90;102252.94;5098062;27;46013;-66
2021/09/30 12:41:38;;;;;;;;;0.00;0.00;;;;;18.34;40.61;102252.00;5081530;27;45234;-65
2021/09/30 12:44:13;;;;;;;;;1.00;1.00;;;;;18.43;40.70;102256.97;5081229;28;45238;-62
2021/09/30 12:46:45;;;;;;;;;0.00;0.00;;;;;18.45;40.37;102252.50;5081945;27;45377;-64
2021/09/30 12:49:10;;;;;;;;;0.50;0.50;;;;;18.51;39.67;102244.38;5082244;27;46179;-63
2021/09/30 12:51:36;;;;;;;;;6.25;2.00;;;;;18.60;40.61;102253.69;5082110;27;45440;-65
2021/09/30 12:54:02;;;;;;;;;1.00;0.25;;;;;18.79;40.63;102232.84;5081972;27;45422;-66
2021/09/30 12:56:29;;;;;;;;;0.75;0.00;;;;;18.94;38.55;102231.41;5081511;28;45283;-63
2021/09/30 12:58:55;;;;;;;;;1.00;1.00;;;;;18.98;39.43;102228.56;5081749;27;46292;-63
2021/09/30 13:01:35;;;;;;;;;3.00;2.00;;;;;19.04;39.21;102238.03;5081459;27;45399;-63
2021/09/30 13:04:06;;;;;;;;;1.00;0.75;;;;;19.21;39.13;102225.03;5082209;27;45254;-64
2021/09/30 13:06:32;;;;;;;;;6.25;3.50;;;;;19.45;39.19;102231.97;5081963;27;45420;-63
2021/09/30 13:08:57;;;;;;;;;2.00;1.00;;;;;19.54;38.64;102220.22;5081834;27;46279;-63
2021/09/30 13:11:30;;;;;;;;;3.25;2.50;;;;;19.49;38.47;102213.38;5081779;27;45194;-63
2021/09/30 13:14:15;;;;;;;;;3.00;1.00;;;;;19.41;38.33;102205.78;5081780;27;45416;-63
2021/09/30 13:16:43;;;;;;;;;1.00;1.00;;;;;19.44;36.69;102203.03;5081484;28;45330;-66
2021/09/30 13:19:08;;;;;;;;;1.00;1.00;;;;;19.48;37.47;102203.75;5080408;27;45479;-64
2021/09/30 13:21:54;;;;;;;;;1.25;0.00;;;;;19.49;37.49;102195.78;5080126;28;45388;-65
2021/09/30 13:24:19;;;;;;;;;0.00;0.00;;;;;19.58;37.00;102195.41;5079099;28;45290;-65
2021/09/30 13:26:44;;;;;;;;;1.00;1.00;;;;;19.58;37.33;102190.16;5079888;27;45287;-66
2021/09/30 13:29:10;;;;;;;;;2.00;1.50;;;;;19.51;36.46;102185.16;5073231;28;46257;-66
2021/09/30 13:31:36;;;;;;;;;13.00;7.00;;;;;19.39;35.70;102183.88;5072685;28;45372;-66
2021/09/30 13:34:02;;;;;;;;;3.75;3.00;;;;;19.32;35.73;102185.94;5077778;28;45469;-65
2021/09/30 13:36:27;;;;;;;;;6.75;2.00;;;;;19.28;36.28;102179.06;5079451;27;45610;-66
2021/09/30 13:38:52;;;;;;;;;6.00;3.75;;;;;19.27;35.92;102173.88;5081356;27;45308;-65
2021/09/30 13:41:18;;;;;;;;;4.25;3.25;;;;;19.23;36.59;102167.88;5074757;27;45343;-65
2021/09/30 13:43:43;;;;;;;;;17.00;8.75;;;;;19.26;37.04;102166.88;5067685;27;45333;-65
2021/09/30 13:46:08;;;;;;;;;5.50;2.50;;;;;19.28;36.20;102165.03;5080435;27;45415;-65
2021/09/30 13:48:34;;;;;;;;;2.00;2.00;;;;;19.31;36.69;102165.75;5080968;27;46379;-65
2021/09/30 13:50:59;;;;;;;;;3.00;2.00;;;;;19.43;36.84;102160.00;5081209;27;45420;-65
2021/09/30 13:53:24;;;;;;;;;4.25;1.50;;;;;19.55;37.15;102158.63;5080710;27;45235;-65
2021/09/30 13:55:50;;;;;;;;;3.00;1.00;;;;;19.52;37.14;102155.25;5081223;27;45248;-64
2021/09/30 13:58:15;;;;;;;;;4.00;3.00;;;;;19.40;37.27;102160.09;5078778;27;46095;-65
2021/09/30 14:00:40;;;;;;;;;0.50;0.25;;;;;19.38;37.32;102137.34;5073683;28;45386;-65
2021/09/30 14:03:07;;;;;;;;;0.00;0.00;;;;;19.43;37.87;102132.78;5075361;27;45636;-64
2021/09/30 14:05:32;;;;;;;;;3.50;1.25;;;;;19.46;37.94;102130.00;5076059;27;46160;-65
2021/09/30 14:07:58;;;;;;;;;0.25;0.25;;;;;19.36;37.19;102118.97;5078462;27;46238;-65
2021/09/30 14:10:24;;;;;;;;;8.25;3.50;;;;;19.28;37.65;102120.22;5079356;27;45725;-65
2021/09/30 14:12:50;;;;;;;;;7.25;3.00;;;;;19.29;38.26;102124.56;5080156;27;45449;-65
2021/09/30 14:15:15;;;;;;;;;4.25;2.50;;;;;19.31;38.53;102102.50;5079432;27;45600;-68
2021/09/30 14:17:41;;;;;;;;;13.75;9.50;;;;;19.33;38.18;102097.16;5078177;27;45621;-65
2021/09/30 14:20:08;;;;;;;;;4.50;1.00;;;;;19.31;38.23;102097.22;5080183;27;45282;-67